Time;durP1;ratioP1;P1;durP2;ratioP2;P2;SDS_P1;SDS_P2;PMS_P1;PMS_P2;Temp;Humidity;BMP_temperature;BMP_pressure;BME280_temperature;BME280_humidity;BME280_pressure;Samples;Min_cycle;Max_cycle;Signal;HPM_P1;HPM_P2
2022/07/25 00:00:29;;;;;;;13.02;7.35;;;23.10;82.40;;;;;;5019804;28;20041;-84
2022/07/25 00:02:55;;;;;;;9.77;7.10;;;23.10;83.60;;;;;;5019920;28;20030;-85
2022/07/25 00:05:21;;;;;;;10.30;6.55;;;23.20;83.00;;;;;;5018762;28;20038;-86
2022/07/25 00:07:48;;;;;;;13.63;7.20;;;23.20;82.60;;;;;;5010920;28;20089;-85
2022/07/25 00:10:13;;;;;;;15.05;7.05;;;23.20;83.40;;;;;;5008104;28;20031;-86
2022/07/25 00:12:39;;;;;;;13.85;6.80;;;23.10;84.10;;;;;;5008316;28;20086;-87
2022/07/25 00:15:06;;;;;;;11.38;6.75;;;23.10;84.80;;;;;;4991012;28;20085;-85
2022/07/25 00:17:32;;;;;;;11.27;7.35;;;23.20;85.50;;;;;;5021346;28;20026;-86
2022/07/25 00:19:59;;;;;;;12.45;6.80;;;23.20;86.30;;;;;;5008017;28;20081;-86
2022/07/25 00:22:25;;;;;;;11.15;6.55;;;23.30;87.60;;;;;;5006115;28;20038;-87
2022/07/25 00:24:51;;;;;;;11.93;6.70;;;23.40;88.00;;;;;;5005421;28;20038;-85
2022/07/25 00:27:17;;;;;;;13.10;6.88;;;23.50;90.20;;;;;;4993589;28;20046;-86
2022/07/25 00:29:42;;;;;;;13.73;5.55;;;23.50;90.00;;;;;;5004373;28;20026;-86
2022/07/25 00:32:09;;;;;;;9.32;4.78;;;23.50;90.80;;;;;;5006631;28;20022;-86
2022/07/25 00:34:35;;;;;;;10.23;5.55;;;23.50;90.70;;;;;;4992620;28;20046;-84
2022/07/25 00:37:01;;;;;;;8.45;5.60;;;23.40;90.40;;;;;;5025116;28;20425;-85
2022/07/25 00:39:27;;;;;;;11.07;5.25;;;23.30;90.80;;;;;;4989931;28;20042;-84
2022/07/25 00:41:53;;;;;;;10.95;5.72;;;23.20;90.80;;;;;;5021154;28;20034;-85
2022/07/25 00:44:24;;;;;;;8.77;5.47;;;23.20;90.90;;;;;;5005176;28;20037;-84
2022/07/25 00:46:49;;;;;;;9.38;5.93;;;23.30;90.40;;;;;;5004055;28;20526;-84
2022/07/25 00:49:15;;;;;;;8.30;5.05;;;23.30;90.30;;;;;;4992693;28;20013;-83
2022/07/25 00:51:42;;;;;;;9.80;5.15;;;23.20;89.20;;;;;;5003358;28;20106;-84
2022/07/25 00:54:08;;;;;;;9.00;5.57;;;23.10;88.60;;;;;;5003182;28;20022;-84
2022/07/25 00:56:34;;;;;;;6.80;4.97;;;23.00;89.10;;;;;;5019781;28;20046;-84
2022/07/25 00:59:00;;;;;;;8.63;4.97;;;22.80;89.30;;;;;;5002488;28;20995;-85
2022/07/25 01:01:26;;;;;;;10.27;5.28;;;22.70;89.60;;;;;;5019481;28;20041;-84
2022/07/25 01:03:52;;;;;;;6.78;4.78;;;22.60;89.10;;;;;;5018814;28;20022;-84
2022/07/25 01:06:19;;;;;;;9.15;4.80;;;22.50;89.70;;;;;;4989830;28;20037;-85
2022/07/25 01:08:45;;;;;;;9.32;5.20;;;22.50;90.20;;;;;;4993805;28;20529;-85
2022/07/25 01:11:11;;;;;;;12.27;5.43;;;22.50;90.90;;;;;;5006304;28;20050;-86
2022/07/25 01:13:37;;;;;;;7.97;5.35;;;22.50;91.00;;;;;;4970922;28;20018;-85
2022/07/25 01:16:03;;;;;;;10.05;5.43;;;22.40;90.70;;;;;;4986761;28;20089;-85
2022/07/25 01:18:29;;;;;;;10.30;5.53;;;22.40;91.20;;;;;;5019447;28;20037;-86
2022/07/25 01:20:55;;;;;;;10.27;5.35;;;22.20;91.50;;;;;;5003283;28;20026;-86
2022/07/25 01:23:21;;;;;;;7.18;5.07;;;22.20;91.90;;;;;;4987069;28;20046;-86
2022/07/25 01:25:47;;;;;;;9.05;5.70;;;22.20;92.60;;;;;;5003710;28;20040;-85
2022/07/25 01:28:13;;;;;;;9.88;5.20;;;22.20;93.30;;;;;;4985355;28;20018;-84
2022/07/25 01:30:39;;;;;;;8.05;5.93;;;22.40;93.60;;;;;;5003680;28;20026;-86
2022/07/25 01:33:04;;;;;;;9.05;5.68;;;22.50;93.40;;;;;;4970715;28;20045;-86
2022/07/25 01:35:30;;;;;;;7.13;5.45;;;22.60;93.20;;;;;;4987184;28;20521;-85
2022/07/25 01:37:56;;;;;;;9.35;5.10;;;22.70;93.20;;;;;;5013248;28;20034;-85
2022/07/25 01:40:22;;;;;;;9.18;5.38;;;22.90;93.00;;;;;;5018274;28;20041;-86
2022/07/25 01:42:48;;;;;;;9.57;5.68;;;23.10;92.30;;;;;;5033283;28;20050;-86
2022/07/25 01:45:14;;;;;;;7.75;5.18;;;23.10;91.60;;;;;;4994861;28;20057;-85
2022/07/25 01:47:40;;;;;;;10.00;5.63;;;23.10;91.80;;;;;;5016115;28;20015;-83
2022/07/25 01:50:07;;;;;;;12.63;4.93;;;23.00;92.10;;;;;;5017787;28;20034;-83
2022/07/25 01:52:33;;;;;;;8.25;5.78;;;22.90;92.30;;;;;;5016964;28;20082;-84
2022/07/25 01:54:59;;;;;;;8.98;5.93;;;23.10;92.60;;;;;;5001374;28;20038;-85
2022/07/25 01:57:24;;;;;;;12.18;5.97;;;23.00;94.20;;;;;;5019159;28;20038;-83
2022/07/25 01:59:50;;;;;;;11.75;6.90;;;22.90;94.70;;;;;;5021971;28;20074;-86
2022/07/25 02:02:16;;;;;;;12.98;6.53;;;22.90;95.20;;;;;;5037808;28;20034;-85
2022/07/25 02:04:42;;;;;;;9.93;6.60;;;22.80;95.30;;;;;;5021204;28;20053;-86
2022/07/25 02:07:07;;;;;;;10.05;5.78;;;22.70;95.30;;;;;;5018614;28;20033;-86
2022/07/25 02:09:33;;;;;;;8.23;5.90;;;22.80;95.60;;;;;;5017212;28;20073;-86
2022/07/25 02:11:59;;;;;;;9.85;6.68;;;22.90;95.40;;;;;;5015174;28;20026;-86
2022/07/25 02:14:25;;;;;;;9.32;6.25;;;22.80;94.10;;;;;;5017106;28;20039;-83
2022/07/25 02:16:51;;;;;;;13.60;6.78;;;22.70;94.00;;;;;;5015333;28;20053;-85
2022/07/25 02:19:16;;;;;;;11.52;6.07;;;22.70;94.60;;;;;;4996079;28;20573;-86
2022/07/25 02:21:42;;;;;;;8.55;6.35;;;22.60;94.80;;;;;;5009137;28;20117;-85
2022/07/25 02:24:08;;;;;;;9.20;6.60;;;22.60;94.40;;;;;;5010698;28;20041;-86
2022/07/25 02:26:34;;;;;;;8.77;6.38;;;22.60;94.60;;;;;;4976914;28;20034;-85
2022/07/25 02:29:00;;;;;;;13.10;6.72;;;22.40;94.40;;;;;;4991066;28;20027;-86
2022/07/25 02:31:25;;;;;;;12.00;6.60;;;22.30;95.20;;;;;;5008708;28;20033;-86
2022/07/25 02:33:51;;;;;;;8.40;6.05;;;22.20;95.70;;;;;;4992807;28;20026;-86
2022/07/25 02:36:17;;;;;;;10.38;6.05;;;22.20;95.80;;;;;;4990298;28;20497;-86
2022/07/25 02:38:43;;;;;;;10.90;6.40;;;22.30;95.60;;;;;;5006774;28;20130;-86
2022/07/25 02:41:10;;;;;;;10.35;5.90;;;22.30;95.40;;;;;;5007273;28;20049;-85
2022/07/25 02:43:36;;;;;;;13.38;5.97;;;22.30;94.40;;;;;;5011860;28;20058;-84
2022/07/25 02:46:01;;;;;;;9.25;5.60;;;22.50;94.40;;;;;;5016807;28;20094;-86
2022/07/25 02:48:27;;;;;;;10.65;6.05;;;22.40;93.90;;;;;;5016620;28;20037;-85
2022/07/25 02:50:53;;;;;;;8.90;5.82;;;22.40;93.90;;;;;;5016904;28;20045;-84
2022/07/25 02:53:19;;;;;;;9.52;6.38;;;22.50;93.90;;;;;;5000424;28;20020;-85
2022/07/25 02:55:45;;;;;;;11.98;5.88;;;22.40;94.10;;;;;;5014344;28;20089;-85
2022/07/25 02:58:11;;;;;;;10.85;6.10;;;22.30;94.30;;;;;;5028675;28;20034;-86
2022/07/25 03:00:36;;;;;;;12.07;6.15;;;22.50;93.90;;;;;;5030354;28;20094;-83
2022/07/25 03:03:02;;;;;;;13.77;6.40;;;22.30;93.20;;;;;;4997563;28;20062;-85
2022/07/25 03:05:28;;;;;;;10.50;6.18;;;22.10;93.70;;;;;;5010958;28;20034;-83
2022/07/25 03:07:54;;;;;;;11.43;5.90;;;22.10;94.30;;;;;;5008974;28;20105;-85
2022/07/25 03:10:21;;;;;;;13.07;5.82;;;22.00;95.00;;;;;;5001751;28;20042;-85
2022/07/25 03:12:46;;;;;;;8.43;5.45;;;22.10;95.30;;;;;;5018664;28;20011;-85
2022/07/25 03:15:13;;;;;;;9.80;5.38;;;22.10;95.90;;;;;;5010748;28;20065;-86
2022/07/25 03:17:39;;;;;;;9.45;5.53;;;22.10;96.00;;;;;;5022121;28;20030;-86
2022/07/25 03:20:06;;;;;;;6.55;4.97;;;22.30;96.10;;;;;;4990744;28;20014;-86
2022/07/25 03:22:32;;;;;;;8.40;5.05;;;22.30;96.30;;;;;;5013135;28;20058;-88
2022/07/25 03:24:58;;;;;;;10.57;5.60;;;22.10;97.00;;;;;;5009441;28;20478;-85
2022/07/25 03:27:24;;;;;;;11.25;5.60;;;21.90;97.80;;;;;;5004467;28;20037;-86
2022/07/25 03:29:50;;;;;;;11.57;5.65;;;22.10;97.70;;;;;;4996318;28;20023;-85
2022/07/25 03:32:15;;;;;;;8.40;5.65;;;22.00;97.80;;;;;;5007639;28;20050;-85
2022/07/25 03:34:42;;;;;;;9.15;5.80;;;22.00;98.00;;;;;;5007009;28;20037;-87
2022/07/25 03:37:08;;;;;;;9.93;5.95;;;21.90;98.60;;;;;;4986262;28;20073;-86
2022/07/25 03:39:34;;;;;;;8.02;5.38;;;21.90;98.70;;;;;;5041819;22;20038;-78
2022/07/25 03:41:59;;;;;;;8.32;5.43;;;22.10;98.40;;;;;;5022671;28;20658;-78
2022/07/25 03:44:25;;;;;;;7.28;5.25;;;22.10;97.80;;;;;;5022000;28;20109;-78
2022/07/25 03:46:51;;;;;;;14.48;6.68;;;22.20;97.70;;;;;;5026488;28;20033;-78
2022/07/25 03:49:18;;;;;;;8.63;5.88;;;22.20;95.80;;;;;;5031051;28;20029;-77
2022/07/25 03:51:44;;;;;;;9.85;5.38;;;22.10;96.40;;;;;;5016785;28;20030;-77
2022/07/25 03:54:12;;;;;;;14.00;5.80;;;22.10;96.30;;;;;;5026879;28;20021;-78
2022/07/25 03:56:39;;;;;;;12.27;6.05;;;22.00;96.10;;;;;;5020638;28;20099;-78
2022/07/25 03:59:06;;;;;;;12.88;6.22;;;21.90;95.90;;;;;;5020500;28;20022;-77
2022/07/25 04:01:32;;;;;;;12.88;5.95;;;22.00;95.90;;;;;;5003779;28;20049;-79
2022/07/25 04:03:58;;;;;;;7.38;5.82;;;22.00;95.80;;;;;;5020490;28;20025;-76
2022/07/25 04:06:24;;;;;;;11.85;6.20;;;22.00;95.70;;;;;;5026616;28;20084;-77
2022/07/25 04:08:50;;;;;;;15.25;6.90;;;22.00;95.60;;;;;;5028246;28;20030;-76
2022/07/25 04:11:16;;;;;;;11.23;5.82;;;21.80;95.80;;;;;;5029388;28;20030;-77
2022/07/25 04:13:42;;;;;;;14.85;6.90;;;21.70;96.10;;;;;;5027107;28;20036;-76
2022/07/25 04:16:08;;;;;;;9.95;5.97;;;21.70;96.20;;;;;;5028094;28;20038;-78
2022/07/25 04:18:34;;;;;;;11.15;6.53;;;21.60;96.60;;;;;;5029342;28;20030;-77
2022/07/25 04:21:01;;;;;;;12.05;6.00;;;21.40;97.20;;;;;;5026694;28;20040;-79
2022/07/25 04:23:27;;;;;;;14.15;6.88;;;21.40;98.00;;;;;;5028449;28;20501;-79
2022/07/25 04:25:54;;;;;;;12.07;7.13;;;21.30;98.70;;;;;;5019258;28;20034;-78
2022/07/25 04:28:19;;;;;;;11.57;6.38;;;21.30;99.30;;;;;;5018832;28;20026;-80
2022/07/25 04:30:46;;;;;;;10.55;6.60;;;21.30;99.80;;;;;;5022151;28;20048;-78
2022/07/25 04:33:12;;;;;;;14.75;7.15;;;21.60;99.50;;;;;;5019804;28;20064;-78
2022/07/25 04:35:38;;;;;;;13.48;6.80;;;22.00;98.70;;;;;;5018367;28;20118;-77
2022/07/25 04:38:04;;;;;;;9.30;6.43;;;22.30;98.00;;;;;;5019478;28;20045;-78
2022/07/25 04:40:30;;;;;;;10.23;6.05;;;22.60;97.40;;;;;;5020635;28;20034;-79
2022/07/25 04:42:56;;;;;;;14.20;7.35;;;22.60;97.40;;;;;;5022144;28;20094;-79
2022/07/25 04:45:22;;;;;;;11.60;6.95;;;22.70;97.20;;;;;;5023153;28;20025;-78
2022/07/25 04:47:48;;;;;;;17.38;6.70;;;22.80;97.10;;;;;;5023724;28;20527;-78
2022/07/25 04:50:15;;;;;;;14.90;8.55;;;23.00;96.80;;;;;;5023848;28;20034;-79
2022/07/25 04:52:40;;;;;;;15.30;7.57;;;23.00;96.60;;;;;;5026395;28;20094;-80
2022/07/25 04:55:07;;;;;;;14.07;6.90;;;22.90;96.70;;;;;;5025969;28;20038;-79
2022/07/25 04:57:33;;;;;;;16.38;7.53;;;22.80;97.00;;;;;;5021964;28;20421;-80
2022/07/25 04:59:59;;;;;;;14.07;8.13;;;23.00;96.90;;;;;;5002873;28;20045;-80
2022/07/25 05:02:25;;;;;;;13.85;7.65;;;23.10;96.70;;;;;;5021592;28;20022;-79
2022/07/25 05:04:51;;;;;;;15.20;8.15;;;23.10;96.60;;;;;;5023309;28;20026;-78
2022/07/25 05:07:17;;;;;;;21.65;8.77;;;23.20;96.20;;;;;;5005130;28;20049;-78
2022/07/25 05:09:44;;;;;;;16.25;7.80;;;23.20;96.00;;;;;;5021036;28;20568;-79
2022/07/25 05:12:11;;;;;;;13.98;7.28;;;23.10;96.00;;;;;;5024322;28;20100;-79
2022/07/25 05:14:37;;;;;;;18.05;7.97;;;23.40;95.90;;;;;;5005012;28;20053;-80
2022/07/25 05:17:04;;;;;;;17.25;8.48;;;23.60;95.30;;;;;;5023525;28;20030;-78
2022/07/25 05:19:30;;;;;;;17.65;9.60;;;23.80;94.80;;;;;;5021788;28;20029;-79
2022/07/25 05:21:56;;;;;;;17.02;9.57;;;24.10;94.00;;;;;;5022200;28;20022;-79
2022/07/25 05:24:22;;;;;;;12.85;8.35;;;23.90;93.90;;;;;;5029295;28;20114;-78
2022/07/25 05:26:49;;;;;;;15.63;8.77;;;23.60;94.50;;;;;;5027685;28;20022;-77
2022/07/25 05:29:15;;;;;;;15.27;9.05;;;23.40;94.60;;;;;;5029729;28;20180;-77
2022/07/25 05:31:41;;;;;;;19.90;9.45;;;23.30;95.20;;;;;;5027421;28;20536;-79
2022/07/25 05:34:07;;;;;;;14.27;8.88;;;23.30;95.00;;;;;;5027034;28;20057;-79
2022/07/25 05:36:33;;;;;;;17.00;10.02;;;23.40;94.90;;;;;;5006829;28;20026;-77
2022/07/25 05:39:00;;;;;;;15.57;8.98;;;23.60;94.50;;;;;;5020639;28;20053;-79
2022/07/25 05:41:26;;;;;;;14.50;8.63;;;23.70;94.10;;;;;;5025598;28;20037;-78
2022/07/25 05:43:53;;;;;;;13.93;8.85;;;23.70;94.20;;;;;;5021464;28;20021;-78
2022/07/25 05:46:19;;;;;;;19.05;9.07;;;24.00;93.70;;;;;;5021278;28;20048;-78
2022/07/25 05:48:45;;;;;;;17.05;9.85;;;24.00;93.50;;;;;;5022213;28;20026;-78
2022/07/25 05:51:11;;;;;;;16.90;10.68;;;23.90;93.60;;;;;;5022787;28;20030;-79
2022/07/25 05:53:37;;;;;;;20.73;11.00;;;24.00;93.70;;;;;;5002252;28;20030;-77
2022/07/25 05:56:03;;;;;;;17.02;9.13;;;24.00;93.40;;;;;;5020335;28;20022;-79
2022/07/25 05:58:30;;;;;;;18.85;10.27;;;24.00;93.70;;;;;;5022950;28;20025;-79
2022/07/25 06:00:56;;;;;;;16.75;9.40;;;24.20;93.20;;;;;;4999241;28;20006;-77
2022/07/25 06:03:22;;;;;;;16.60;10.27;;;24.30;93.10;;;;;;5031034;28;20025;-79
2022/07/25 06:05:48;;;;;;;18.60;10.88;;;24.30;92.90;;;;;;5034153;28;20022;-77
2022/07/25 06:08:14;;;;;;;18.17;9.90;;;24.30;92.80;;;;;;5035477;28;20025;-79
2022/07/25 06:10:40;;;;;;;15.55;10.07;;;24.20;93.10;;;;;;5027934;28;20006;-79
2022/07/25 06:13:06;;;;;;;21.27;10.65;;;24.20;93.20;;;;;;5024179;28;20064;-79
2022/07/25 06:15:32;;;;;;;13.88;8.93;;;24.20;92.70;;;;;;5022248;28;20061;-79
2022/07/25 06:17:58;;;;;;;15.38;8.75;;;24.30;92.70;;;;;;5021553;28;20048;-81
2022/07/25 06:20:24;;;;;;;13.10;8.98;;;24.50;92.20;;;;;;5023315;28;20050;-79
2022/07/25 06:22:50;;;;;;;14.52;9.07;;;24.70;91.30;;;;;;5021528;28;20026;-81
2022/07/25 06:25:16;;;;;;;22.50;8.35;;;24.80;90.90;;;;;;5019057;28;20022;-80
2022/07/25 06:27:41;;;;;;;10.93;7.40;;;24.90;89.00;;;;;;5018811;28;20049;-78
2022/07/25 06:30:08;;;;;;;14.80;8.30;;;24.80;88.90;;;;;;5011548;28;20026;-80
2022/07/25 06:32:34;;;;;;;16.55;7.82;;;24.80;88.70;;;;;;5011076;28;20021;-79
2022/07/25 06:35:01;;;;;;;12.40;7.82;;;24.80;88.10;;;;;;4992896;28;20026;-79
2022/07/25 06:37:27;;;;;;;10.15;5.97;;;24.90;86.40;;;;;;4991178;28;20089;-79
2022/07/25 06:39:52;;;;;;;8.85;5.97;;;25.00;86.10;;;;;;5009257;28;20477;-79
2022/07/25 06:42:18;;;;;;;14.55;6.18;;;25.00;84.80;;;;;;5011465;28;20085;-79
2022/07/25 06:44:44;;;;;;;13.95;5.97;;;24.90;84.60;;;;;;5023711;28;20037;-82
2022/07/25 06:47:11;;;;;;;9.10;5.40;;;24.90;84.50;;;;;;5007391;28;20515;-77
2022/07/25 06:49:41;;;;;;;8.52;5.93;;;25.00;84.10;;;;;;5017125;28;20096;-77
2022/07/25 06:52:08;;;;;;;7.45;5.55;;;24.80;81.90;;;;;;5012499;28;20363;-80
2022/07/25 06:54:34;;;;;;;11.68;5.38;;;24.80;83.00;;;;;;5007654;28;20732;-79
2022/07/25 06:57:01;;;;;;;11.07;4.90;;;24.90;82.60;;;;;;5007427;28;20026;-79
2022/07/25 06:59:26;;;;;;;11.63;4.93;;;25.00;83.10;;;;;;4976894;28;20022;-79
2022/07/25 07:01:53;;;;;;;12.55;5.35;;;25.10;81.80;;;;;;5022031;28;20532;-78
2022/07/25 07:04:19;;;;;;;11.88;4.55;;;25.20;82.30;;;;;;5021260;28;20018;-79
2022/07/25 07:06:45;;;;;;;10.73;4.30;;;25.30;81.50;;;;;;5024577;28;20040;-79
2022/07/25 07:09:11;;;;;;;11.13;4.78;;;25.30;81.00;;;;;;5006784;28;20030;-78
2022/07/25 07:11:37;;;;;;;6.05;4.13;;;25.40;80.10;;;;;;5007914;28;20025;-78
2022/07/25 07:14:03;;;;;;;11.10;4.25;;;25.50;80.60;;;;;;5025072;28;20033;-78
2022/07/25 07:16:29;;;;;;;10.55;4.38;;;25.50;80.10;;;;;;5021877;28;20454;-80
2022/07/25 07:18:56;;;;;;;11.70;4.32;;;25.60;79.40;;;;;;5004455;28;20065;-78
2022/07/25 07:21:22;;;;;;;8.15;4.13;;;25.80;79.10;;;;;;4998259;28;20022;-79
2022/07/25 07:23:48;;;;;;;12.10;4.55;;;25.90;78.80;;;;;;5022227;28;20532;-80
2022/07/25 07:26:14;;;;;;;9.43;4.22;;;25.90;77.90;;;;;;5022521;28;20061;-78
2022/07/25 07:28:40;;;;;;;17.80;4.35;;;25.70;77.80;;;;;;5022101;28;20026;-80
2022/07/25 07:31:06;;;;;;;13.35;4.38;;;25.70;77.40;;;;;;5022478;28;20045;-79
2022/07/25 07:33:32;;;;;;;13.98;4.20;;;25.50;77.60;;;;;;5004313;28;20033;-78
2022/07/25 07:35:59;;;;;;;11.07;4.90;;;25.30;77.00;;;;;;5010136;28;20030;-80
2022/07/25 07:38:25;;;;;;;8.02;3.95;;;25.20;78.30;;;;;;5015728;28;20445;-78
2022/07/25 07:40:51;;;;;;;5.28;3.55;;;25.20;77.50;;;;;;5009199;28;20030;-77
2022/07/25 07:43:17;;;;;;;9.00;4.05;;;25.30;78.10;;;;;;5014548;28;20104;-79
2022/07/25 07:45:43;;;;;;;9.85;3.92;;;25.40;78.00;;;;;;5010969;28;20060;-78
2022/07/25 07:48:09;;;;;;;9.00;3.53;;;25.60;77.80;;;;;;5027772;28;20086;-79
2022/07/25 07:50:35;;;;;;;12.05;3.80;;;25.90;77.20;;;;;;5012968;28;20044;-79
2022/07/25 07:53:02;;;;;;;5.43;3.45;;;26.10;76.60;;;;;;5028314;28;20497;-79
2022/07/25 07:58:17;;;;;;;6.30;3.85;;;26.30;75.70;;;;;;5026569;28;20102;-77
2022/07/25 08:00:46;;;;;;;7.65;3.78;;;26.50;74.50;;;;;;5022940;28;20026;-80
2022/07/25 08:03:12;;;;;;;10.05;3.38;;;26.60;74.40;;;;;;5023410;28;20018;-80
2022/07/25 08:05:41;;;;;;;7.63;3.10;;;26.70;73.30;;;;;;5010161;28;20044;-77
2022/07/25 08:08:09;;;;;;;5.45;2.90;;;26.80;73.30;;;;;;5010344;28;20049;-81
2022/07/25 08:10:38;;;;;;;5.88;3.17;;;26.90;72.60;;;;;;5008478;28;20098;-81
2022/07/25 08:13:15;;;;;;;11.55;3.53;;;27.00;72.30;;;;;;5022656;28;20045;-82
2022/07/25 08:15:43;;;;;;;16.77;3.50;;;27.20;72.00;;;;;;5022802;28;20033;-82
2022/07/25 08:18:09;;;;;;;10.90;3.53;;;27.30;71.50;;;;;;5024548;28;20022;-83
2022/07/25 08:20:35;;;;;;;6.90;3.28;;;27.40;70.60;;;;;;5023063;28;20025;-83
2022/07/25 08:23:01;;;;;;;3.75;2.97;;;27.40;70.20;;;;;;5022815;28;20104;-82
2022/07/25 08:25:27;;;;;;;11.82;3.45;;;27.50;70.10;;;;;;5005138;28;20041;-82
2022/07/25 08:27:52;;;;;;;4.88;3.22;;;27.60;69.90;;;;;;5022605;28;20032;-82
2022/07/25 08:30:18;;;;;;;6.53;3.20;;;27.70;69.00;;;;;;5021862;28;20116;-82
2022/07/25 08:32:50;;;;;;;3.53;2.80;;;27.80;68.80;;;;;;5003754;28;20026;-83
2022/07/25 08:35:17;;;;;;;10.90;3.33;;;28.00;68.30;;;;;;5021114;28;20026;-83
2022/07/25 08:37:43;;;;;;;13.98;4.28;;;28.00;67.70;;;;;;5002899;28;20018;-82
2022/07/25 08:40:13;;;;;;;7.00;3.20;;;28.00;67.80;;;;;;5022256;28;20045;-83
2022/07/25 08:42:40;;;;;;;9.95;3.50;;;28.10;68.10;;;;;;5007233;28;20092;-80
2022/07/25 08:45:07;;;;;;;6.82;3.38;;;28.00;67.50;;;;;;5037270;28;20026;-82
2022/07/25 08:47:34;;;;;;;9.30;3.35;;;28.10;67.40;;;;;;5028617;28;20033;-82
2022/07/25 08:50:07;;;;;;;9.15;4.25;;;28.30;66.40;;;;;;5003343;28;20022;-84
2022/07/25 08:52:36;;;;;;;13.68;4.00;;;28.40;66.50;;;;;;5004634;28;20041;-81
2022/07/25 08:55:09;;;;;;;7.18;3.50;;;28.50;66.20;;;;;;5019865;28;20021;-82
2022/07/25 08:57:42;;;;;;;7.57;3.95;;;28.50;66.10;;;;;;5021785;28;20018;-82
2022/07/25 09:00:11;;;;;;;5.43;3.17;;;28.60;65.60;;;;;;5021231;28;20516;-82
2022/07/25 09:02:37;;;;;;;13.90;4.10;;;28.60;65.40;;;;;;5015078;28;20466;-81
2022/07/25 09:05:04;;;;;;;10.57;4.45;;;28.60;64.50;;;;;;4999892;28;20054;-81
2022/07/25 09:07:31;;;;;;;6.88;3.85;;;28.80;64.60;;;;;;5004771;28;20508;-82
2022/07/25 09:09:57;;;;;;;5.50;3.67;;;28.90;64.50;;;;;;5016124;28;20068;-84
2022/07/25 09:12:27;;;;;;;9.88;4.10;;;29.00;63.90;;;;;;5010997;28;20026;-82
2022/07/25 09:14:54;;;;;;;9.90;4.35;;;29.10;63.90;;;;;;5009176;28;20105;-82
2022/07/25 09:17:19;;;;;;;8.38;4.10;;;29.30;63.40;;;;;;5012463;28;20026;-83
2022/07/25 09:19:54;;;;;;;9.60;4.70;;;29.30;63.60;;;;;;4998652;28;20030;-82
2022/07/25 09:22:20;;;;;;;8.65;5.43;;;29.40;63.60;;;;;;5018115;28;20029;-83
2022/07/25 09:24:46;;;;;;;14.45;4.25;;;29.40;63.30;;;;;;5025973;28;20528;-82
2022/07/25 09:27:14;;;;;;;8.23;3.90;;;29.40;63.10;;;;;;5007503;28;20039;-81
2022/07/25 09:29:43;;;;;;;6.22;4.03;;;29.40;63.10;;;;;;5023764;28;20018;-84
2022/07/25 09:32:21;;;;;;;4.93;3.83;;;29.40;62.60;;;;;;5010365;28;20029;-83
2022/07/25 09:34:49;;;;;;;7.90;4.38;;;29.40;63.20;;;;;;5026207;28;20099;-82
2022/07/25 09:37:19;;;;;;;8.82;4.07;;;29.60;63.10;;;;;;5005063;28;20029;-83
2022/07/25 09:39:50;;;;;;;8.02;4.45;;;29.60;63.20;;;;;;5057249;22;20109;-85
2022/07/25 09:42:31;;;;;;;8.18;4.30;;;29.80;63.10;;;;;;5052960;28;20032;-87
2022/07/25 09:45:10;;;;;;;13.82;7.78;;;30.10;63.10;;;;;;5037465;28;20029;-88
2022/07/25 09:47:56;;;;;;;9.63;4.45;;;30.40;62.80;;;;;;5058040;28;20024;-85
2022/07/25 09:50:27;;;;;;;7.93;4.60;;;30.70;62.10;;;;;;5072150;28;20045;-86
2022/07/25 09:52:56;;;;;;;6.55;4.30;;;31.20;61.70;;;;;;5078285;28;20036;-86
2022/07/25 09:55:22;;;;;;;7.63;4.70;;;31.60;61.50;;;;;;5060813;28;20100;-84
2022/07/25 09:57:48;;;;;;;9.50;4.78;;;31.90;60.70;;;;;;5078041;28;20009;-85
2022/07/25 10:00:19;;;;;;;12.45;5.40;;;32.40;60.20;;;;;;5043653;28;20022;-84
2022/07/25 10:03:15;;;;;;;6.38;4.88;;;32.60;59.90;;;;;;5060343;28;20020;-87
2022/07/25 10:05:55;;;;;;;7.55;4.78;;;33.00;59.40;;;;;;5070346;28;20036;-85
2022/07/25 10:08:22;;;;;;;9.77;5.05;;;33.40;58.90;;;;;;5040380;28;20045;-86
2022/07/25 10:10:48;;;;;;;7.97;4.55;;;34.30;58.00;;;;;;5056878;28;20045;-85
2022/07/25 10:13:26;;;;;;;8.25;5.15;;;34.90;57.20;;;;;;5056805;28;20101;-87
2022/07/25 10:15:53;;;;;;;14.45;5.10;;;35.40;56.30;;;;;;5024235;28;20055;-86
2022/07/25 10:18:24;;;;;;;9.02;5.38;;;35.80;55.70;;;;;;5040288;28;20077;-86
2022/07/25 10:21:09;;;;;;;9.80;5.13;;;36.50;54.70;;;;;;5027191;28;20025;-86
2022/07/25 10:23:36;;;;;;;8.65;5.32;;;36.80;54.70;;;;;;5043826;28;20056;-86
2022/07/25 10:26:14;;;;;;;8.27;5.15;;;37.70;53.50;;;;;;5045362;28;20040;-86
2022/07/25 10:28:45;;;;;;;8.15;5.40;;;37.90;52.80;;;;;;5080809;28;20044;-85
2022/07/25 10:31:34;;;;;;;6.15;5.25;;;37.80;53.10;;;;;;5080704;28;20041;-85
2022/07/25 10:34:07;;;;;;;9.32;5.20;;;38.40;52.90;;;;;;5063453;28;20032;-87
2022/07/25 10:36:48;;;;;;;9.15;5.40;;;38.80;52.20;;;;;;5080622;28;20033;-84
2022/07/25 10:39:18;;;;;;;7.32;5.60;;;38.30;52.20;;;;;;5062926;28;20029;-87
2022/07/25 10:41:50;;;;;;;6.47;5.10;;;38.20;52.60;;;;;;5043080;28;20027;-84
2022/07/25 10:44:16;;;;;;;9.60;5.07;;;38.60;52.60;;;;;;5060083;28;20029;-84
2022/07/25 10:46:43;;;;;;;11.98;5.47;;;39.60;51.60;;;;;;5060406;28;20041;-84
2022/07/25 10:49:21;;;;;;;11.25;5.13;;;39.90;51.20;;;;;;5047594;28;20020;-85
2022/07/25 10:52:00;;;;;;;7.43;4.95;;;39.80;50.70;;;;;;5052487;28;20025;-86
2022/07/25 10:54:37;;;;;;;6.95;4.45;;;39.80;51.20;;;;;;5055495;28;20021;-85
2022/07/25 10:57:05;;;;;;;10.07;4.95;;;40.50;50.30;;;;;;5074903;28;20017;-84
2022/07/25 10:59:38;;;;;;;12.70;4.57;;;41.50;49.30;;;;;;5054228;28;20010;-85
2022/07/25 11:02:08;;;;;;;10.60;5.00;;;42.00;49.00;;;;;;5056469;28;20131;-85
2022/07/25 11:04:35;;;;;;;8.77;4.80;;;43.10;47.90;;;;;;5050445;28;20017;-84
2022/07/25 11:07:12;;;;;;;6.32;4.95;;;42.10;47.60;;;;;;5065422;28;20056;-84
2022/07/25 11:09:39;;;;;;;8.48;5.32;;;41.90;48.20;;;;;;5053953;28;20121;-85
2022/07/25 11:12:06;;;;;;;5.38;4.60;;;42.30;47.70;;;;;;5036580;28;20029;-85
2022/07/25 11:14:40;;;;;;;10.50;5.10;;;42.40;47.60;;;;;;5047006;28;20029;-85
2022/07/25 11:17:21;;;;;;;6.60;4.45;;;43.70;46.60;;;;;;5049968;28;20102;-84
2022/07/25 11:19:57;;;;;;;4.65;4.25;;;43.10;46.50;;;;;;5042315;28;20048;-85
2022/07/25 11:22:24;;;;;;;6.88;4.70;;;42.60;46.40;;;;;;5042336;28;20056;-85
2022/07/25 11:24:50;;;;;;;10.70;4.88;;;41.80;47.20;;;;;;5066951;28;20006;-85
2022/07/25 11:27:27;;;;;;;6.28;4.85;;;42.80;46.80;;;;;;5071548;28;20081;-84
2022/07/25 11:30:04;;;;;;;13.90;5.30;;;43.50;46.60;;;;;;5069364;28;20048;-85
2022/07/25 11:32:38;;;;;;;6.78;4.57;;;43.50;45.90;;;;;;5058964;28;20025;-85
2022/07/25 11:35:05;;;;;;;6.28;4.28;;;43.60;46.10;;;;;;5050326;28;20045;-85
2022/07/25 11:37:36;;;;;;;5.78;4.57;;;44.20;45.50;;;;;;5041101;28;20013;-85
2022/07/25 11:40:02;;;;;;;8.75;4.30;;;45.00;44.50;;;;;;5045341;28;20036;-84
2022/07/25 11:42:51;;;;;;;12.18;5.60;;;44.50;44.50;;;;;;5047683;28;20093;-84
2022/07/25 11:45:29;;;;;;;6.63;4.70;;;44.60;44.40;;;;;;5068218;28;20037;-84
2022/07/25 11:48:12;;;;;;;6.07;4.32;;;44.00;44.80;;;;;;5069241;28;20013;-83
2022/07/25 11:50:40;;;;;;;5.38;4.30;;;44.70;44.30;;;;;;5053177;28;20024;-86
2022/07/25 11:53:09;;;;;;;8.80;4.50;;;44.80;43.90;;;;;;5068951;28;20017;-85
2022/07/25 11:55:39;;;;;;;5.55;4.10;;;45.00;44.00;;;;;;5042573;28;20559;-87
2022/07/25 11:58:07;;;;;;;4.25;3.85;;;44.10;43.90;;;;;;5043450;28;20039;-86
2022/07/25 12:00:44;;;;;;;6.50;4.00;;;43.60;44.40;;;;;;5040818;28;20029;-88
2022/07/25 12:03:12;;;;;;;4.60;4.05;;;43.80;44.40;;;;;;5065388;28;20485;-88
2022/07/25 12:05:38;;;;;;;5.90;4.80;;;44.10;44.20;;;;;;5048586;28;20035;-86
2022/07/25 12:08:16;;;;;;;8.50;4.38;;;44.00;44.10;;;;;;5035014;28;20015;-87
2022/07/25 12:10:46;;;;;;;5.95;4.57;;;44.40;44.30;;;;;;5051589;28;20035;-87
2022/07/25 12:13:28;;;;;;;4.90;3.85;;;44.90;43.80;;;;;;5048506;28;20025;-88
2022/07/25 12:15:58;;;;;;;4.20;3.88;;;45.20;43.40;;;;;;5048746;28;20060;-85
2022/07/25 12:18:25;;;;;;;6.65;4.13;;;44.80;43.60;;;;;;5046308;28;20033;-87
2022/07/25 12:20:52;;;;;;;13.13;4.88;;;45.10;44.00;;;;;;5047902;28;20040;-86
2022/07/25 12:23:18;;;;;;;5.60;4.25;;;45.10;43.60;;;;;;5032193;28;20120;-86
2022/07/25 12:25:45;;;;;;;7.80;4.03;;;45.60;43.40;;;;;;5035319;28;20049;-86
2022/07/25 12:28:11;;;;;;;6.00;4.43;;;45.50;43.20;;;;;;5034551;28;20091;-87
2022/07/25 12:30:39;;;;;;;7.50;4.10;;;45.40;43.20;;;;;;5027024;28;20485;-86
2022/07/25 12:33:05;;;;;;;9.13;4.32;;;45.10;43.30;;;;;;5045603;28;20030;-87
2022/07/25 12:35:31;;;;;;;6.00;4.20;;;45.20;43.30;;;;;;5050703;28;20033;-88
2022/07/25 12:37:57;;;;;;;6.90;4.30;;;45.50;43.30;;;;;;5068033;28;20021;-87
2022/07/25 12:40:23;;;;;;;5.72;4.60;;;45.30;43.30;;;;;;5056435;28;20041;-87
2022/07/25 12:42:50;;;;;;;12.93;5.13;;;45.20;43.20;;;;;;5066504;28;20116;-86
2022/07/25 12:45:16;;;;;;;6.78;4.95;;;45.00;43.40;;;;;;5066623;28;20056;-87